ADDS METAR Data INFO
IDs: Format: Raw Decoded Include TAF

Data at: 1534 UTC 25 Feb 2018

KBKE 251453Z AUTO 00000KT 10SM OVC060 M04/M08 A3002 RMK AO2 SNB13E39 SLP195 P0000 60000 T10441083 56007
KBKE 251353Z AUTO 19003KT 10SM OVC046 M04/M09 A3002 RMK AO2 SLP196 T10441089
KBKE 251253Z AUTO 33003KT 10SM BKN070 OVC100 M03/M08 A3002 RMK AO2 SLP189 T10281078
KBKE 251153Z AUTO 07003KT 10SM OVC100 M07/M10 A3004 RMK AO2 SLP202 70006 T10671100 11067 21094 58007
KBKE 251053Z AUTO 00000KT 10SM BKN065 OVC100 M08/M12 A3005 RMK AO2 SLP205 T10831117
KBKE 250953Z AUTO 00000KT 10SM CLR M08/M12 A3006 RMK AO2 SLP209 T10831117
KBKE 250853Z AUTO 00000KT 10SM CLR M08/M12 A3006 RMK AO2 SLP216 T10831122 58002
KBKE 250753Z AUTO 17003KT 10SM OVC048 M07/M12 A3008 RMK AO2 SLP221 T10721122 400281094
KBKE 250653Z AUTO 13005KT 10SM CLR M09/M13 A3008 RMK AO2 SLP226 T10941133
KBKE 250553Z AUTO 14007KT 10SM CLR M08/M12 A3007 RMK AO2 SLP218 T10831122 10017 21089 51012
KBKE 250453Z AUTO 20005KT 10SM CLR M07/M11 A3007 RMK AO2 SLP217 T10721111
KBKE 250353Z AUTO 21006KT 10SM CLR M05/M11 A3004 RMK AO2 SLP207 T10501106
KBKE 250253Z AUTO 22004KT 10SM CLR M03/M09 A3003 RMK AO2 SLP203 T10281094 53025
KBKE 250153Z AUTO 32009KT 10SM CLR M02/M08 A2999 RMK AO2 SLP188 T10171078
KBKE 250053Z AUTO 30013KT 10SM FEW060 FEW085 01/M08 A2997 RMK AO2 PK WND 31026/0014 SLP177 T00111078
KBKE 242353Z AUTO 32018KT 10SM FEW070 BKN090 BKN120 01/M06 A2995 RMK AO2 SLP168 60004 T00111061 10028 21028 53014
KBKE 242253Z AUTO 31015KT 10SM CLR 02/M06 A2992 RMK AO2 SLP157 T00221056
KBKE 242153Z AUTO VRB04KT 10SM FEW017 01/M05 A2990 RMK AO2 SNE12B30E39 SLP148 P0000 T00111050
KBKE 242118Z AUTO 29008KT 10SM SCT034 BKN075 00/M05 A2989 RMK AO2 SNE12 P0000 T00001050
KBKE 242110Z AUTO 28006KT 9SM -SN BKN029 BKN039 BKN080 00/M04 A2989 RMK AO2 P0000 T00001044
KBKE 242104Z AUTO 27006KT 2 1/2SM -SN FEW024 BKN030 OVC050 M01/M04 A2990 RMK AO2 P0000 T10061044
KBKE 242053Z AUTO 25006KT 1/2SM SN BKN019 BKN024 OVC035 M02/M05 A2990 RMK AO2 SNB14 SLP154 P0001 60004 T10221050 51012
KBKE 242041Z AUTO 22004KT 1 3/4SM -SN FEW006 BKN025 OVC032 M02/M06 A2990 RMK AO2 SNB14 P0000 T10171056
KBKE 242038Z AUTO 21004KT 4SM -SN FEW006 BKN027 OVC046 M02/M06 A2990 RMK AO2 SNB14 P0000 T10171056
KBKE 242027Z AUTO 22004KT 6SM -SN FEW006 BKN031 OVC050 M01/M05 A2990 RMK AO2 SNB14 P0000 T10061050
KBKE 242018Z AUTO 18004KT 2 1/2SM -SN FEW007 BKN022 BKN032 M01/M05 A2989 RMK AO2 SNB14 P0000 T10111050
KBKE 242001Z AUTO 19004KT 10SM SCT007 BKN050 M01/M05 A2989 RMK AO2 T10061050
KBKE 241953Z AUTO 22003KT 10SM BKN008 M01/M05 A2989 RMK AO2 SNE37 SLP149 P0002 T10061050
KBKE 241946Z AUTO 21005KT 10SM BKN008 M01/M05 A2989 RMK AO2 SNE37 P0002 T10061050
KBKE 241937Z AUTO 00000KT 6SM HZ SCT006 BKN012 M01/M05 A2989 RMK AO2 SNE37 P0002 T10111050
KBKE 241929Z AUTO 00000KT 2SM -SN FEW006 BKN012 OVC026 M02/M05 A2989 RMK AO2 P0002 T10171050
KBKE 241914Z AUTO 11006KT 1/2SM SN BKN012 OVC023 M02/M05 A2988 RMK AO2 P0002 T10221050
KBKE 241900Z AUTO 09006KT 1/4SM +SN VV011 M03/M06 A2988 RMK AO2 P0001 T10281056
KBKE 241853Z AUTO 07007KT 1/2SM SN VV013 M03/M06 A2989 RMK AO2 SNE07B23 SLP150 P0001 T10281056
KBKE 241848Z AUTO 06006KT 3/4SM -SN VV015 M03/M06 A2989 RMK AO2 SNE07B23 P0001
KBKE 241843Z AUTO 05010KT 1 3/4SM -SN BKN012 OVC021 M03/M06 A2988 RMK AO2 SNE07B23 P0000 T10281056
KBKE 241804Z AUTO VRB03KT 7SM -SN BKN012 OVC019 M02/M06 A2986 RMK AO2 P0000 T10171061
KBKE 241753Z AUTO 00000KT 2 1/2SM -SN BKN011 OVC019 M02/M06 A2986 RMK AO2 SLP141 P0000 60002 T10221061 11022 21061 58013
KBKE 241733Z AUTO 20003KT 1 3/4SM -SN OVC010 M03/M07 A2987 RMK AO2 P0000 T10331067
KBKE 241723Z AUTO 21004KT 3SM -SN OVC010 M03/M06 A2988 RMK AO2 CIG 007V012 P0000 T10281061
KBKE 241706Z AUTO 15005KT 1 3/4SM -SN OVC012 M03/M07 A2988 RMK AO2 P0000 T10331067
KBKE 241653Z AUTO 11011KT 5SM -SN BKN012 BKN042 OVC050 M03/M07 A2988 RMK AO2 SLP149 P0000 T10331067
KBKE 241639Z AUTO 09013KT 3SM -SN FEW014 BKN032 OVC049 M03/M07 A2988 RMK AO2 P0000 T10331067
KBKE 241610Z AUTO 10016KT 1SM -SN VV020 M04/M07 A2989 RMK AO2 P0000 T10391072
KBKE 241601Z AUTO 09014KT 3/4SM -SN VV018 M04/M07 A2989 RMK AO2 P0000 T10391072
KBKE 241553Z AUTO 09013KT 1SM -SN VV019 M04/M07 A2989 RMK AO2 SLP152 P0001 T10391072
KBKE 241527Z AUTO 10012KT 1SM -SN VV018 M04/M07 A2989 RMK AO2 P0001 T10441072
KBKE 241507Z AUTO 11009KT 1/2SM SN VV013 M04/M07 A2990 RMK AO2 P0001 T10441072
KBKE 241453Z AUTO 12005KT 1SM -SN BR VV013 M05/M07 A2991 RMK AO2 SNB29 SLP159 P0001 60001 T10501072 56021
KBKE 241450Z AUTO 13004KT 1SM -SN VV014 M05/M08 A2991 RMK AO2 SNB29 P0001
KBKE 241440Z AUTO 12005KT 1SM -SN OVC022 M05/M08 A2991 RMK AO2 SNB29 P0000 T10501078
KBKE 241433Z AUTO 11004KT 2SM -SN BKN028 OVC085 M05/M08 A2992 RMK AO2 SNB29 P0000 T10501078
KBKE 241353Z AUTO VRB03KT 10SM FEW065 SCT090 BKN110 M05/M08 A2994 RMK AO2 SLP172 T10501083
KBKE 241253Z AUTO 06003KT 10SM CLR M06/M09 A2997 RMK AO2 SLP181 T10561094
KBKE 241153Z AUTO 00000KT 9SM BKN046 BKN080 OVC110 M04/M09 A3001 RMK AO2 SNB15E51 SLP192 P0000 60000 T10441094 11033 21056 56023
KBKE 241053Z AUTO 00000KT 10SM BKN060 OVC070 M04/M09 A3003 RMK AO2 SLP199 T10441094
KBKE 240953Z AUTO 15003KT 10SM OVC055 M03/M10 A3006 RMK AO2 SLP207 T10331100
KBKE 240853Z AUTO 00000KT 10SM FEW050 OVC070 M04/M09 A3009 RMK AO2 SLP217 T10391094 58024
KBKE 240753Z AUTO 09003KT 10SM OVC055 M05/M10 A3011 RMK AO2 SLP231 T10501100 410061139
KBKE 240653Z AUTO 00000KT 10SM OVC048 M04/M11 A3014 RMK AO2 SLP241 T10441106
KBKE 240553Z AUTO 00000KT 10SM OVC038 M03/M10 A3016 RMK AO2 SLP249 T10331100 11011 21039 58012
KBKE 240453Z AUTO 00000KT 10SM OVC055 M03/M11 A3018 RMK AO2 SLP258 T10331106
KBKE 240353Z AUTO 02006KT 10SM SCT060 OVC075 M03/M11 A3019 RMK AO2 SLP264 T10331111